Time;durP1;ratioP1;P1;durP2;ratioP2;P2;SDS_P1;SDS_P2;PMS_P1;PMS_P2;Temp;Humidity;BMP_temperature;BMP_pressure;BME280_temperature;BME280_humidity;BME280_pressure;Samples;Min_cycle;Max_cycle;Signal;HPM_P1;HPM_P2
2022/10/26 00:01:29;;;;;;;11.23;4.40;;;;;;;;;;6280518;28;20173;-79
2022/10/26 00:04:30;;;;;;;12.30;5.00;;;;;;;;;;6294705;28;20052;-79
2022/10/26 00:07:32;;;;;;;13.35;5.35;;;;;;;;;;6307427;28;20042;-78
2022/10/26 00:10:35;;;;;;;10.93;5.70;;;;;;;;;;6307845;28;20067;-80
2022/10/26 00:13:38;;;;;;;14.38;6.25;;;;;;;;;;6271775;28;20142;-79
2022/10/26 00:16:40;;;;;;;13.35;6.18;;;;;;;;;;6305029;28;20044;-80
2022/10/26 00:19:41;;;;;;;11.23;5.88;;;;;;;;;;6293350;28;20046;-79
2022/10/26 00:22:43;;;;;;;14.38;6.45;;;;;;;;;;6311180;28;20044;-80
2022/10/26 00:25:53;;;;;;;22.45;7.05;;;;;;;;;;6293695;28;20066;-80
2022/10/26 00:28:56;;;;;;;10.00;5.05;;;;;;;;;;6308433;28;20048;-80
2022/10/26 00:31:58;;;;;;;26.23;7.18;;;;;;;;;;6298688;28;20058;-79
2022/10/26 00:34:59;;;;;;;30.90;8.50;;;;;;;;;;6279972;28;20039;-79
2022/10/26 00:38:21;;;;;;;17.70;6.07;;;;;;;;;;6300045;28;20044;-79
2022/10/26 00:41:29;;;;;;;16.55;6.00;;;;;;;;;;6303099;28;20541;-80
2022/10/26 00:44:46;;;;;;;16.05;6.30;;;;;;;;;;6303247;28;20066;-79
2022/10/26 00:48:12;;;;;;;16.25;5.90;;;;;;;;;;6305604;28;20052;-80
2022/10/26 00:51:37;;;;;;;17.50;6.32;;;;;;;;;;6281038;28;20052;-80
2022/10/26 00:54:39;;;;;;;15.93;6.32;;;;;;;;;;6284416;28;20052;-78
2022/10/26 00:57:41;;;;;;;15.15;5.55;;;;;;;;;;6284548;28;20317;-79
2022/10/26 01:00:44;;;;;;;11.48;5.25;;;;;;;;;;6303795;28;20044;-79
2022/10/26 01:03:46;;;;;;;14.80;5.93;;;;;;;;;;6303576;28;20266;-80
2022/10/26 01:06:48;;;;;;;20.50;8.07;;;;;;;;;;6301136;28;20150;-79
2022/10/26 01:09:50;;;;;;;23.05;7.65;;;;;;;;;;6309341;28;20188;-79
2022/10/26 01:12:54;;;;;;;25.75;6.80;;;;;;;;;;6289056;28;20048;-79
2022/10/26 01:16:37;;;;;;;21.67;6.35;;;;;;;;;;6301838;28;20173;-79
2022/10/26 01:19:56;;;;;;;17.30;6.57;;;;;;;;;;6270513;28;20051;-79
2022/10/26 01:23:13;;;;;;;16.98;5.85;;;;;;;;;;6295894;28;20059;-79
2022/10/26 01:26:41;;;;;;;15.52;5.95;;;;;;;;;;6303023;28;20068;-79
2022/10/26 01:29:52;;;;;;;15.35;6.18;;;;;;;;;;6304969;28;20048;-80
2022/10/26 01:33:12;;;;;;;21.52;6.13;;;;;;;;;;6303486;28;20145;-80
2022/10/26 01:36:39;;;;;;;18.83;6.60;;;;;;;;;;6311071;28;20816;-79
2022/10/26 01:39:46;;;;;;;15.85;6.05;;;;;;;;;;6277377;28;20522;-80
2022/10/26 01:42:51;;;;;;;12.48;6.03;;;;;;;;;;6295560;28;20048;-79
2022/10/26 01:45:54;;;;;;;16.88;5.97;;;;;;;;;;6308196;28;20496;-80
2022/10/26 01:48:58;;;;;;;;;;;;;;;;;;6310310;28;21126;-80
2022/10/26 01:51:59;;;;;;;10.95;5.40;;;;;;;;;;6290264;28;19920;-80
2022/10/26 01:55:04;;;;;;;15.93;6.65;;;;;;;;;;6307760;28;20048;-79
2022/10/26 01:58:20;;;;;;;10.93;5.78;;;;;;;;;;6306033;28;20500;-79
2022/10/26 02:01:37;;;;;;;10.75;6.10;;;;;;;;;;6312119;28;20036;-79
2022/10/26 02:05:12;;;;;;;12.10;6.30;;;;;;;;;;6309680;28;20044;-80
2022/10/26 02:08:37;;;;;;;18.45;7.70;;;;;;;;;;6288564;28;20044;-79
2022/10/26 02:11:42;;;;;;;11.60;5.95;;;;;;;;;;6291574;27;20056;-79
2022/10/26 02:15:04;;;;;;;10.65;6.22;;;;;;;;;;6306469;28;20536;-80
2022/10/26 02:18:54;;;;;;;13.70;6.47;;;;;;;;;;6309349;28;20583;-79
2022/10/26 02:22:20;;;;;;;10.38;5.32;;;;;;;;;;6277738;28;20036;-79
2022/10/26 02:25:27;;;;;;;12.38;5.65;;;;;;;;;;6306852;28;20086;-79
2022/10/26 02:28:34;;;;;;;12.02;6.00;;;;;;;;;;6310435;28;20140;-79
2022/10/26 02:31:37;;;;;;;11.75;6.20;;;;;;;;;;6302958;28;20048;-79
2022/10/26 02:34:43;;;;;;;15.50;6.20;;;;;;;;;;6310284;28;20052;-79
2022/10/26 02:37:47;;;;;;;13.70;5.70;;;;;;;;;;6304433;28;20064;-79
2022/10/26 02:40:50;;;;;;;14.68;5.88;;;;;;;;;;6290185;28;20071;-79
2022/10/26 02:43:56;;;;;;;10.35;5.75;;;;;;;;;;6292823;28;20074;-79
2022/10/26 02:46:58;;;;;;;13.82;6.13;;;;;;;;;;6286045;28;20051;-79
2022/10/26 02:50:01;;;;;;;17.60;7.65;;;;;;;;;;6307537;28;20039;-80
2022/10/26 02:53:21;;;;;;;18.42;8.02;;;;;;;;;;6307660;28;20044;-80
2022/10/26 02:56:29;;;;;;;17.45;8.13;;;;;;;;;;6311885;28;20052;-79
2022/10/26 02:59:34;;;;;;;20.50;9.93;;;;;;;;;;6305648;28;20045;-79
2022/10/26 03:02:36;;;;;;;17.77;8.75;;;;;;;;;;6296114;28;20052;-79
2022/10/26 03:05:42;;;;;;;32.17;9.20;;;;;;;;;;6272384;28;20706;-79
2022/10/26 03:08:43;;;;;;;19.20;9.70;;;;;;;;;;6294428;28;20121;-79
2022/10/26 03:11:45;;;;;;;20.73;9.77;;;;;;;;;;6302372;28;20146;-80
2022/10/26 03:14:47;;;;;;;18.27;7.68;;;;;;;;;;6298750;28;20127;-79
2022/10/26 03:17:48;;;;;;;13.40;6.95;;;;;;;;;;6297100;28;20135;-80
2022/10/26 03:20:51;;;;;;;16.52;6.95;;;;;;;;;;6284220;28;20055;-79
2022/10/26 03:23:53;;;;;;;13.40;6.60;;;;;;;;;;6288720;28;20048;-79
2022/10/26 03:26:55;;;;;;;12.77;6.03;;;;;;;;;;6287660;28;20067;-79
2022/10/26 03:30:03;;;;;;;9.23;5.15;;;;;;;;;;6305355;28;20446;-79
2022/10/26 03:33:05;;;;;;;10.13;5.77;;;;;;;;;;6302052;28;20491;-79
2022/10/26 03:36:07;;;;;;;12.80;5.90;;;;;;;;;;6287672;28;20127;-79
2022/10/26 03:39:09;;;;;;;15.55;6.75;;;;;;;;;;6308909;28;20056;-79
2022/10/26 03:42:10;;;;;;;13.43;7.35;;;;;;;;;;6298702;28;20492;-79
2022/10/26 03:45:12;;;;;;;17.70;8.80;;;;;;;;;;6304080;28;20048;-80
2022/10/26 03:48:14;;;;;;;15.27;8.15;;;;;;;;;;6300568;28;20133;-79
2022/10/26 03:51:15;;;;;;;15.68;8.02;;;;;;;;;;6304880;28;20451;-79
2022/10/26 03:54:18;;;;;;;19.25;7.55;;;;;;;;;;6301813;28;20126;-80
2022/10/26 03:57:20;;;;;;;17.83;8.27;;;;;;;;;;6302106;28;20048;-80
2022/10/26 04:00:22;;;;;;;16.80;7.18;;;;;;;;;;6306579;28;20051;-79
2022/10/26 04:03:24;;;;;;;10.98;6.38;;;;;;;;;;6302050;28;20438;-80
2022/10/26 04:06:25;;;;;;;12.30;6.63;;;;;;;;;;6302922;28;20054;-80
2022/10/26 04:09:27;;;;;;;13.85;6.03;;;;;;;;;;6309659;28;20092;-80
2022/10/26 04:12:29;;;;;;;14.27;6.72;;;;;;;;;;6303348;28;20492;-80
2022/10/26 04:15:30;;;;;;;16.55;6.30;;;;;;;;;;6306279;28;20108;-80
2022/10/26 04:18:32;;;;;;;21.42;7.90;;;;;;;;;;6309486;28;20048;-81
2022/10/26 04:21:34;;;;;;;15.27;6.97;;;;;;;;;;6309647;28;20146;-79
2022/10/26 04:24:36;;;;;;;12.77;6.18;;;;;;;;;;6298287;28;20068;-79
2022/10/26 04:27:37;;;;;;;10.45;6.20;;;;;;;;;;6289269;28;20070;-79
2022/10/26 04:30:39;;;;;;;13.90;6.93;;;;;;;;;;6288673;28;20509;-79
2022/10/26 04:33:41;;;;;;;12.57;7.25;;;;;;;;;;6298370;28;20721;-79
2022/10/26 04:36:42;;;;;;;13.38;6.45;;;;;;;;;;6299675;28;20055;-80
2022/10/26 04:39:44;;;;;;;12.15;6.95;;;;;;;;;;6301761;28;20062;-79
2022/10/26 04:42:46;;;;;;;9.45;6.00;;;;;;;;;;6302600;28;20056;-80
2022/10/26 04:45:49;;;;;;;9.75;6.32;;;;;;;;;;6302164;28;20040;-80
2022/10/26 04:48:50;;;;;;;17.90;6.35;;;;;;;;;;6297413;28;20056;-79
2022/10/26 04:51:52;;;;;;;13.65;7.10;;;;;;;;;;6301382;28;20046;-80
2022/10/26 04:54:54;;;;;;;9.48;6.28;;;;;;;;;;6308507;28;20047;-79
2022/10/26 04:57:56;;;;;;;12.73;6.50;;;;;;;;;;6305468;28;20052;-80
2022/10/26 05:01:02;;;;;;;9.73;5.20;;;;;;;;;;6303464;28;20043;-79
2022/10/26 05:04:04;;;;;;;12.05;5.18;;;;;;;;;;6300155;28;20364;-79
2022/10/26 05:07:05;;;;;;;8.63;4.40;;;;;;;;;;6287999;28;20051;-79
2022/10/26 05:10:08;;;;;;;7.55;4.80;;;;;;;;;;6300438;28;20052;-79
2022/10/26 05:13:10;;;;;;;8.48;4.88;;;;;;;;;;6307392;28;20122;-79
2022/10/26 05:16:12;;;;;;;12.00;4.40;;;;;;;;;;6305759;28;20048;-79
2022/10/26 05:19:13;;;;;;;13.90;5.30;;;;;;;;;;6308299;28;20075;-80
2022/10/26 05:22:15;;;;;;;10.18;5.47;;;;;;;;;;6308782;28;20056;-79
2022/10/26 05:25:17;;;;;;;8.13;5.13;;;;;;;;;;6309749;28;20058;-80
2022/10/26 05:28:18;;;;;;;9.43;5.03;;;;;;;;;;6307173;28;20067;-80
2022/10/26 05:31:20;;;;;;;7.90;4.30;;;;;;;;;;6309478;28;20056;-79
2022/10/26 05:34:22;;;;;;;9.88;5.07;;;;;;;;;;6309245;28;20072;-80
2022/10/26 05:37:27;;;;;;;11.48;4.88;;;;;;;;;;6309724;28;20068;-80
2022/10/26 05:40:29;;;;;;;8.90;5.10;;;;;;;;;;6306984;28;20047;-79
2022/10/26 05:43:30;;;;;;;9.52;4.53;;;;;;;;;;6279033;28;20512;-80
2022/10/26 05:46:32;;;;;;;10.52;5.28;;;;;;;;;;6290061;28;20048;-80
2022/10/26 05:49:34;;;;;;;10.18;4.88;;;;;;;;;;6297170;28;20040;-81
2022/10/26 05:52:45;;;;;;;15.55;6.25;;;;;;;;;;6299272;28;20044;-79
2022/10/26 05:55:47;;;;;;;10.35;5.90;;;;;;;;;;6286875;28;20047;-80
2022/10/26 05:58:50;;;;;;;8.65;4.75;;;;;;;;;;6314585;28;20459;-81
2022/10/26 06:02:10;;;;;;;10.68;6.28;;;;;;;;;;6308852;28;20056;-80
2022/10/26 06:05:20;;;;;;;11.38;5.68;;;;;;;;;;6310429;28;20048;-81
2022/10/26 06:08:24;;;;;;;10.48;5.70;;;;;;;;;;6296689;28;20051;-80
2022/10/26 06:11:26;;;;;;;11.73;5.25;;;;;;;;;;6285930;28;20058;-79
2022/10/26 06:14:28;;;;;;;9.52;5.30;;;;;;;;;;6297209;28;20051;-80
2022/10/26 06:17:52;;;;;;;15.45;6.35;;;;;;;;;;6303305;28;20104;-80
2022/10/26 06:20:54;;;;;;;9.98;5.13;;;;;;;;;;6305720;28;20262;-80
2022/10/26 06:24:14;;;;;;;11.15;5.20;;;;;;;;;;6292535;28;20046;-81
2022/10/26 06:27:25;;;;;;;10.85;5.85;;;;;;;;;;6302801;28;20044;-80
2022/10/26 06:30:27;;;;;;;13.40;5.82;;;;;;;;;;6290267;28;20117;-80
2022/10/26 06:33:29;;;;;;;9.65;5.90;;;;;;;;;;6296709;28;20040;-80
2022/10/26 06:36:32;;;;;;;11.13;5.60;;;;;;;;;;6293084;28;20040;-80
2022/10/26 06:39:38;;;;;;;8.90;5.90;;;;;;;;;;6300371;28;20089;-80
2022/10/26 06:42:41;;;;;;;11.35;5.90;;;;;;;;;;6301374;28;20047;-81
2022/10/26 06:45:45;;;;;;;12.40;6.90;;;;;;;;;;6299601;28;21207;-80
2022/10/26 06:49:01;;;;;;;11.38;6.32;;;;;;;;;;6297907;28;20036;-80
2022/10/26 06:52:08;;;;;;;9.98;5.20;;;;;;;;;;6301651;28;20069;-80
2022/10/26 06:55:14;;;;;;;9.45;5.18;;;;;;;;;;6303187;28;20052;-80
2022/10/26 06:58:19;;;;;;;11.93;5.80;;;;;;;;;;6285301;28;20056;-80
2022/10/26 07:01:20;;;;;;;10.48;5.68;;;;;;;;;;6273024;28;20499;-80
2022/10/26 07:04:25;;;;;;;13.50;6.10;;;;;;;;;;6292328;28;20044;-79
2022/10/26 07:07:29;;;;;;;10.75;5.78;;;;;;;;;;6269762;28;20038;-79
2022/10/26 07:10:34;;;;;;;10.23;4.97;;;;;;;;;;6288943;28;20050;-80
2022/10/26 07:13:35;;;;;;;9.13;4.95;;;;;;;;;;6291264;28;20051;-79
2022/10/26 07:16:37;;;;;;;8.98;5.35;;;;;;;;;;6290144;28;20044;-79
2022/10/26 07:19:43;;;;;;;11.32;6.63;;;;;;;;;;6290306;28;20538;-81
2022/10/26 07:22:51;;;;;;;14.50;6.50;;;;;;;;;;6286364;28;20044;-81
2022/10/26 07:25:52;;;;;;;13.23;6.13;;;;;;;;;;6289665;28;20044;-81
2022/10/26 07:28:55;;;;;;;13.60;6.40;;;;;;;;;;6275725;28;20040;-81
2022/10/26 07:31:57;;;;;;;17.05;7.57;;;;;;;;;;6289784;28;20048;-83
2022/10/26 07:34:58;;;;;;;16.65;8.55;;;;;;;;;;6290524;28;20177;-81
2022/10/26 07:38:01;;;;;;;19.92;9.93;;;;;;;;;;6288287;28;20040;-82
2022/10/26 07:41:04;;;;;;;11.50;7.77;;;;;;;;;;6273435;28;20047;-82
2022/10/26 07:44:05;;;;;;;14.13;8.13;;;;;;;;;;6273993;28;20044;-80
2022/10/26 07:47:07;;;;;;;16.65;7.38;;;;;;;;;;6272279;28;20586;-81
2022/10/26 07:50:10;;;;;;;15.30;8.18;;;;;;;;;;6288296;28;20056;-81
2022/10/26 07:53:12;;;;;;;15.38;7.22;;;;;;;;;;6289790;28;20044;-80
2022/10/26 07:56:14;;;;;;;15.95;7.80;;;;;;;;;;6288246;28;20280;-81
2022/10/26 07:59:17;;;;;;;16.30;8.35;;;;;;;;;;6292148;28;20055;-80
2022/10/26 08:02:18;;;;;;;15.32;7.78;;;;;;;;;;6292778;28;22611;-80
2022/10/26 08:05:20;;;;;;;19.50;7.70;;;;;;;;;;6294510;28;20420;-82
2022/10/26 08:08:22;;;;;;;18.55;6.93;;;;;;;;;;6295993;28;20146;-80
2022/10/26 08:11:23;;;;;;;23.90;9.05;;;;;;;;;;6306986;28;20047;-78
2022/10/26 08:14:25;;;;;;;14.95;6.88;;;;;;;;;;6287101;28;21149;-80
2022/10/26 08:17:28;;;;;;;16.73;7.45;;;;;;;;;;6290162;28;20055;-82
2022/10/26 08:20:30;;;;;;;17.92;6.68;;;;;;;;;;6276668;28;20036;-79
2022/10/26 08:23:32;;;;;;;15.48;6.18;;;;;;;;;;6296250;28;20048;-80
2022/10/26 08:26:34;;;;;;;13.82;5.78;;;;;;;;;;6295593;28;20310;-79
2022/10/26 08:29:35;;;;;;;14.18;5.88;;;;;;;;;;6300583;28;20044;-79
2022/10/26 08:32:37;;;;;;;15.30;7.65;;;;;;;;;;6298443;28;20044;-81
2022/10/26 08:35:39;;;;;;;14.55;7.47;;;;;;;;;;6302483;28;20040;-80
2022/10/26 08:38:40;;;;;;;13.02;6.40;;;;;;;;;;6283382;28;20086;-84
2022/10/26 08:41:45;;;;;;;16.33;6.30;;;;;;;;;;6295166;28;20048;-81
2022/10/26 08:44:51;;;;;;;14.90;6.18;;;;;;;;;;6301947;28;20047;-84
2022/10/26 08:47:58;;;;;;;15.70;5.55;;;;;;;;;;6299163;28;20040;-83
2022/10/26 08:51:05;;;;;;;12.55;6.30;;;;;;;;;;6298588;28;20036;-84
2022/10/26 08:54:19;;;;;;;11.30;6.07;;;;;;;;;;6304644;28;20123;-82
2022/10/26 08:57:32;;;;;;;25.83;7.30;;;;;;;;;;6298903;28;20043;-81
2022/10/26 09:00:34;;;;;;;14.20;6.47;;;;;;;;;;6302792;28;20048;-81
2022/10/26 09:03:36;;;;;;;15.68;6.75;;;;;;;;;;6295449;28;20124;-81
2022/10/26 09:07:12;;;;;;;12.75;6.38;;;;;;;;;;6298645;28;20047;-81
2022/10/26 09:10:26;;;;;;;15.73;7.05;;;;;;;;;;6281295;28;20536;-83
2022/10/26 09:14:00;;;;;;;14.95;6.97;;;;;;;;;;6289254;28;20046;-81
2022/10/26 09:17:36;;;;;;;20.30;8.27;;;;;;;;;;6302833;28;20174;-81
2022/10/26 09:20:54;;;;;;;11.82;6.50;;;;;;;;;;6282777;28;20052;-81
2022/10/26 09:24:04;;;;;;;12.68;5.90;;;;;;;;;;6294824;28;20099;-81
2022/10/26 09:27:15;;;;;;;12.13;6.20;;;;;;;;;;6300781;28;20040;-82
2022/10/26 09:30:20;;;;;;;10.10;4.60;;;;;;;;;;6296329;28;22547;-80
2022/10/26 09:33:23;;;;;;;8.68;4.40;;;;;;;;;;6292088;28;20064;-81
2022/10/26 09:36:26;;;;;;;6.43;3.80;;;;;;;;;;6278419;28;20610;-79
2022/10/26 09:39:35;;;;;;;11.95;6.05;;;;;;;;;;6298665;28;20083;-80
2022/10/26 09:42:56;;;;;;;9.02;3.75;;;;;;;;;;6294901;28;20032;-80
2022/10/26 09:45:58;;;;;;;6.28;3.63;;;;;;;;;;6279594;28;25253;-79
2022/10/26 09:49:05;;;;;;;12.00;3.40;;;;;;;;;;6293939;28;20058;-79
2022/10/26 09:52:07;;;;;;;6.35;4.00;;;;;;;;;;6290787;28;20153;-79
2022/10/26 09:55:13;;;;;;;4.93;2.73;;;;;;;;;;6276003;28;20413;-80
2022/10/26 09:58:19;;;;;;;8.00;3.40;;;;;;;;;;6294484;28;20477;-80
2022/10/26 10:01:31;;;;;;;12.65;4.05;;;;;;;;;;6300293;28;20724;-80
2022/10/26 10:04:45;;;;;;;9.13;5.03;;;;;;;;;;6285520;28;20146;-81
2022/10/26 10:07:47;;;;;;;5.35;2.60;;;;;;;;;;6306163;28;20050;-81
2022/10/26 10:10:53;;;;;;;3.67;2.10;;;;;;;;;;6301494;28;20055;-80
2022/10/26 10:14:07;;;;;;;4.70;2.10;;;;;;;;;;6304049;28;20108;-79
2022/10/26 10:17:21;;;;;;;4.50;1.98;;;;;;;;;;6302357;28;20503;-80
2022/10/26 10:20:31;;;;;;;5.10;2.03;;;;;;;;;;6298308;28;20052;-81
2022/10/26 10:23:47;;;;;;;4.57;1.85;;;;;;;;;;6278846;28;20044;-80
2022/10/26 10:27:02;;;;;;;5.63;2.17;;;;;;;;;;6295785;28;20495;-80
2022/10/26 10:30:21;;;;;;;5.93;2.15;;;;;;;;;;6289278;28;20052;-80
2022/10/26 10:33:32;;;;;;;8.73;2.42;;;;;;;;;;6281230;28;20055;-81
2022/10/26 10:36:34;;;;;;;4.97;2.15;;;;;;;;;;6301979;28;20861;-79
2022/10/26 10:39:39;;;;;;;6.05;2.30;;;;;;;;;;6284781;28;20131;-81
2022/10/26 10:42:42;;;;;;;5.47;2.33;;;;;;;;;;6309318;28;20040;-80
2022/10/26 10:45:50;;;;;;;4.53;2.17;;;;;;;;;;6297080;28;20197;-81
2022/10/26 10:49:02;;;;;;;6.72;2.50;;;;;;;;;;6301988;28;20506;-80
2022/10/26 10:52:04;;;;;;;4.05;2.17;;;;;;;;;;6291045;28;20055;-80
2022/10/26 10:55:12;;;;;;;5.22;2.50;;;;;;;;;;6294524;28;20052;-79
2022/10/26 10:58:56;;;;;;;6.13;2.17;;;;;;;;;;6294299;28;20081;-79
2022/10/26 11:02:28;;;;;;;3.10;2.05;;;;;;;;;;6276463;28;20135;-79
2022/10/26 11:06:08;;;;;;;5.72;2.10;;;;;;;;;;6296010;28;20113;-80
2022/10/26 11:09:17;;;;;;;3.20;2.10;;;;;;;;;;6280151;28;20109;-79
2022/10/26 11:12:26;;;;;;;3.78;2.58;;;;;;;;;;6298823;28;20036;-79
2022/10/26 11:15:33;;;;;;;6.20;2.55;;;;;;;;;;6300883;28;20032;-80
2022/10/26 11:18:42;;;;;;;6.35;2.60;;;;;;;;;;6299045;28;20065;-80
2022/10/26 11:21:47;;;;;;;8.63;2.58;;;;;;;;;;6302425;28;20043;-81
2022/10/26 11:25:01;;;;;;;7.85;2.50;;;;;;;;;;6300720;28;20044;-79
2022/10/26 11:28:09;;;;;;;7.20;2.72;;;;;;;;;;6285368;28;20069;-81
2022/10/26 11:31:40;;;;;;;7.07;2.83;;;;;;;;;;6303460;28;20044;-80
2022/10/26 11:34:59;;;;;;;5.40;2.30;;;;;;;;;;6287437;28;20138;-80
2022/10/26 11:38:04;;;;;;;6.20;2.22;;;;;;;;;;6295174;28;20068;-80
2022/10/26 11:41:28;;;;;;;3.72;2.03;;;;;;;;;;6300124;28;20052;-81
2022/10/26 11:44:57;;;;;;;5.25;2.00;;;;;;;;;;6290424;28;20051;-80
2022/10/26 11:48:06;;;;;;;4.93;2.30;;;;;;;;;;6302976;28;20051;-81
2022/10/26 11:51:17;;;;;;;5.03;1.98;;;;;;;;;;6287155;28;20155;-80
2022/10/26 11:54:30;;;;;;;4.90;2.30;;;;;;;;;;6288544;28;20054;-80
2022/10/26 11:57:34;;;;;;;7.38;2.38;;;;;;;;;;6285506;28;20047;-81
2022/10/26 12:00:52;;;;;;;3.63;1.90;;;;;;;;;;6303896;28;20036;-80
2022/10/26 12:03:58;;;;;;;8.15;2.00;;;;;;;;;;6276214;28;20056;-81
2022/10/26 12:07:03;;;;;;;5.57;2.20;;;;;;;;;;6295079;28;20044;-81
2022/10/26 12:10:20;;;;;;;4.43;1.88;;;;;;;;;;6272961;28;20052;-81
2022/10/26 12:13:36;;;;;;;4.50;1.83;;;;;;;;;;6278723;28;20051;-80
2022/10/26 12:17:08;;;;;;;4.78;1.70;;;;;;;;;;6293172;28;20056;-80
2022/10/26 12:20:48;;;;;;;5.95;1.70;;;;;;;;;;6287182;28;20056;-81
2022/10/26 12:24:01;;;;;;;7.70;2.47;;;;;;;;;;6280466;28;20048;-80
2022/10/26 12:27:04;;;;;;;4.00;1.67;;;;;;;;;;6288949;28;20052;-82
2022/10/26 12:30:17;;;;;;;5.32;1.98;;;;;;;;;;6288778;28;20067;-81
2022/10/26 12:33:29;;;;;;;5.35;1.52;;;;;;;;;;6270360;28;20040;-81
2022/10/26 12:36:55;;;;;;;4.07;1.92;;;;;;;;;;6294613;28;20311;-82
2022/10/26 12:40:31;;;;;;;5.22;1.70;;;;;;;;;;6290366;28;20063;-83
2022/10/26 12:43:38;;;;;;;3.65;1.77;;;;;;;;;;6285469;28;20037;-84
2022/10/26 12:46:44;;;;;;;4.93;1.60;;;;;;;;;;6270279;28;20420;-84
2022/10/26 12:50:08;;;;;;;4.75;1.80;;;;;;;;;;6272727;28;20059;-83
2022/10/26 12:53:12;;;;;;;4.90;1.80;;;;;;;;;;6293831;28;20048;-81
2022/10/26 12:56:19;;;;;;;3.28;1.50;;;;;;;;;;6281930;28;20090;-81
2022/10/26 12:59:24;;;;;;;5.63;1.67;;;;;;;;;;6273093;28;20048;-81
2022/10/26 13:02:47;;;;;;;4.03;1.90;;;;;;;;;;6297497;28;20052;-82
2022/10/26 13:06:25;;;;;;;4.97;1.55;;;;;;;;;;6291547;28;20048;-83
2022/10/26 13:09:29;;;;;;;3.40;1.73;;;;;;;;;;6270075;28;20040;-81
2022/10/26 13:12:51;;;;;;;4.38;1.48;;;;;;;;;;6288285;28;20055;-83
2022/10/26 13:15:55;;;;;;;3.00;1.48;;;;;;;;;;6285315;28;20059;-85
2022/10/26 13:18:58;;;;;;;2.42;1.60;;;;;;;;;;6283998;28;20048;-83
2022/10/26 13:22:00;;;;;;;;;;;;;;;;;;6278699;28;20125;-82
2022/10/26 13:25:04;;;;;;;3.38;1.30;;;;;;;;;;6295580;28;22418;-81
2022/10/26 13:28:38;;;;;;;1.85;1.33;;;;;;;;;;6300647;28;20049;-83
2022/10/26 13:31:40;;;;;;;4.35;1.40;;;;;;;;;;6289331;28;20148;-84
2022/10/26 13:34:43;;;;;;;3.30;1.30;;;;;;;;;;6288092;28;20054;-83
2022/10/26 13:37:47;;;;;;;1.88;1.40;;;;;;;;;;6293349;28;20039;-83
2022/10/26 13:40:56;;;;;;;2.33;1.90;;;;;;;;;;6295557;28;20048;-81
2022/10/26 13:44:02;;;;;;;7.95;1.48;;;;;;;;;;6296572;28;20079;-82
2022/10/26 13:47:29;;;;;;;3.40;1.25;;;;;;;;;;6306017;28;20059;-82
2022/10/26 13:50:37;;;;;;;5.00;1.50;;;;;;;;;;6305996;28;20066;-82
2022/10/26 13:53:58;;;;;;;2.35;1.40;;;;;;;;;;6289911;28;20052;-81
2022/10/26 13:57:14;;;;;;;3.05;1.48;;;;;;;;;;6299615;28;20052;-80
2022/10/26 14:00:19;;;;;;;3.67;1.38;;;;;;;;;;6291499;28;20081;-82
2022/10/26 14:03:21;;;;;;;8.55;1.55;;;;;;;;;;6289566;28;20150;-83
2022/10/26 14:06:23;;;;;;;6.85;1.55;;;;;;;;;;6272682;28;20062;-82
2022/10/26 14:09:27;;;;;;;3.95;1.38;;;;;;;;;;6307135;28;20130;-82
2022/10/26 14:12:29;;;;;;;3.78;1.42;;;;;;;;;;6291324;28;20126;-81
2022/10/26 14:15:32;;;;;;;6.23;1.77;;;;;;;;;;6306933;28;20524;-81
2022/10/26 14:18:36;;;;;;;4.30;1.67;;;;;;;;;;6301456;28;20055;-79
2022/10/26 14:21:39;;;;;;;5.13;1.70;;;;;;;;;;6301726;28;20531;-82
2022/10/26 14:24:58;;;;;;;8.48;1.80;;;;;;;;;;6303209;28;20106;-81
2022/10/26 14:28:03;;;;;;;2.85;1.63;;;;;;;;;;6303383;28;20050;-80
2022/10/26 14:31:32;;;;;;;5.03;1.58;;;;;;;;;;6281639;28;20040;-81
2022/10/26 14:34:34;;;;;;;4.82;1.80;;;;;;;;;;6284829;28;20519;-82
2022/10/26 14:37:43;;;;;;;3.60;1.52;;;;;;;;;;6301612;28;20036;-81
2022/10/26 14:40:45;;;;;;;5.22;1.50;;;;;;;;;;6279210;28;20078;-81
2022/10/26 14:43:47;;;;;;;4.25;1.48;;;;;;;;;;6299308;28;20052;-81
2022/10/26 14:46:49;;;;;;;6.38;1.58;;;;;;;;;;6267983;28;20161;-81
2022/10/26 14:49:51;;;;;;;5.73;1.90;;;;;;;;;;6267207;28;20043;-81
2022/10/26 14:52:57;;;;;;;5.05;2.08;;;;;;;;;;6268023;28;20445;-81
2022/10/26 14:55:59;;;;;;;5.00;1.50;;;;;;;;;;6271841;28;20154;-81
2022/10/26 14:59:23;;;;;;;7.75;1.88;;;;;;;;;;6282062;28;20107;-81
2022/10/26 15:02:25;;;;;;;5.47;1.80;;;;;;;;;;6277745;28;20036;-81
2022/10/26 15:05:33;;;;;;;3.40;1.40;;;;;;;;;;6300351;28;20040;-80
2022/10/26 15:08:40;;;;;;;6.03;1.70;;;;;;;;;;6261787;28;20052;-80
2022/10/26 15:11:57;;;;;;;4.65;1.50;;;;;;;;;;6285784;28;20048;-82
2022/10/26 15:15:21;;;;;;;5.25;1.83;;;;;;;;;;6294665;27;20039;-80
2022/10/26 15:18:26;;;;;;;8.93;2.25;;;;;;;;;;6291318;28;20044;-80
2022/10/26 15:21:44;;;;;;;5.85;2.30;;;;;;;;;;6296852;28;20098;-81
2022/10/26 15:24:53;;;;;;;5.15;1.92;;;;;;;;;;6293378;28;20054;-80
2022/10/26 15:28:18;;;;;;;6.32;1.75;;;;;;;;;;6299835;28;20467;-81
2022/10/26 15:31:20;;;;;;;7.22;1.65;;;;;;;;;;6297555;28;20040;-80
2022/10/26 15:34:22;;;;;;;4.55;1.80;;;;;;;;;;6297049;28;20090;-81
2022/10/26 15:37:27;;;;;;;5.07;1.80;;;;;;;;;;6293941;28;20183;-81
2022/10/26 15:40:30;;;;;;;6.35;2.20;;;;;;;;;;6282781;28;20059;-80
2022/10/26 15:43:33;;;;;;;4.97;1.88;;;;;;;;;;6263611;28;20055;-81
2022/10/26 15:46:37;;;;;;;3.22;2.13;;;;;;;;;;6290956;28;20051;-81
2022/10/26 15:49:39;;;;;;;2.97;1.73;;;;;;;;;;6297019;28;20055;-81
2022/10/26 15:52:41;;;;;;;5.32;1.73;;;;;;;;;;6299922;28;20143;-81
2022/10/26 15:55:51;;;;;;;4.28;1.60;;;;;;;;;;6295578;28;20055;-81
2022/10/26 15:58:53;;;;;;;7.18;1.60;;;;;;;;;;6303730;28;20177;-80
2022/10/26 16:01:55;;;;;;;9.00;2.40;;;;;;;;;;6298121;28;20048;-81
2022/10/26 16:04:57;;;;;;;7.35;3.00;;;;;;;;;;6288861;28;20469;-81
2022/10/26 16:07:58;;;;;;;7.20;3.67;;;;;;;;;;6299497;28;20129;-80
2022/10/26 16:11:00;;;;;;;7.28;3.50;;;;;;;;;;6260885;28;20135;-80
2022/10/26 16:14:02;;;;;;;7.38;2.80;;;;;;;;;;6294378;28;20083;-80
2022/10/26 16:17:05;;;;;;;7.88;2.72;;;;;;;;;;6263013;28;20044;-80
2022/10/26 16:20:15;;;;;;;6.75;2.75;;;;;;;;;;6285244;28;20075;-80
2022/10/26 16:23:17;;;;;;;7.30;4.30;;;;;;;;;;6297789;28;20048;-80
2022/10/26 16:26:19;;;;;;;17.98;9.15;;;;;;;;;;6281224;28;20046;-81
2022/10/26 16:29:21;;;;;;;7.82;4.43;;;;;;;;;;6296290;28;20074;-81
2022/10/26 16:32:23;;;;;;;9.63;3.45;;;;;;;;;;6280827;28;20082;-80
2022/10/26 16:35:25;;;;;;;15.15;4.20;;;;;;;;;;6291810;28;20108;-81
2022/10/26 16:38:30;;;;;;;6.43;3.30;;;;;;;;;;6297763;28;20090;-81
2022/10/26 16:41:32;;;;;;;6.30;2.70;;;;;;;;;;6281745;28;20044;-81
2022/10/26 16:44:35;;;;;;;7.07;3.63;;;;;;;;;;6298920;28;20048;-81
2022/10/26 16:47:38;;;;;;;7.43;3.97;;;;;;;;;;6296305;28;20059;-79
2022/10/26 16:50:40;;;;;;;11.20;5.57;;;;;;;;;;6301955;28;20036;-81
2022/10/26 16:53:42;;;;;;;10.43;5.68;;;;;;;;;;6306045;28;20047;-80
2022/10/26 16:56:43;;;;;;;8.07;4.15;;;;;;;;;;6307272;28;20506;-80
2022/10/26 16:59:45;;;;;;;8.50;3.33;;;;;;;;;;6309302;28;20112;-80
2022/10/26 17:02:47;;;;;;;10.93;5.50;;;;;;;;;;6295466;28;20043;-80
2022/10/26 17:05:59;;;;;;;6.30;3.83;;;;;;;;;;6311169;28;20096;-81
2022/10/26 17:09:01;;;;;;;7.80;3.70;;;;;;;;;;6313878;28;21766;-81
2022/10/26 17:12:03;;;;;;;5.13;2.65;;;;;;;;;;6300984;28;20048;-79
2022/10/26 17:15:05;;;;;;;11.37;5.20;;;;;;;;;;6298807;28;20044;-81
2022/10/26 17:18:09;;;;;;;10.75;5.25;;;;;;;;;;6301304;28;20446;-80
2022/10/26 17:21:13;;;;;;;10.88;4.70;;;;;;;;;;6308157;28;20063;-80
2022/10/26 17:24:15;;;;;;;9.57;4.60;;;;;;;;;;6303634;28;20123;-81
2022/10/26 17:27:17;;;;;;;11.93;7.00;;;;;;;;;;6302804;28;20074;-81
2022/10/26 17:30:19;;;;;;;12.15;6.15;;;;;;;;;;6305990;28;20040;-80
2022/10/26 17:33:21;;;;;;;13.18;7.97;;;;;;;;;;6298650;28;20089;-79
2022/10/26 17:36:24;;;;;;;12.27;8.63;;;;;;;;;;6302415;28;20845;-80
2022/10/26 17:39:26;;;;;;;17.75;7.60;;;;;;;;;;6284356;28;20106;-81
2022/10/26 17:42:27;;;;;;;13.88;7.40;;;;;;;;;;6299287;28;20123;-80
2022/10/26 17:45:29;;;;;;;14.40;7.28;;;;;;;;;;6302680;28;20044;-80
2022/10/26 17:48:31;;;;;;;13.32;6.72;;;;;;;;;;6301237;28;20044;-81
2022/10/26 17:51:33;;;;;;;13.35;7.25;;;;;;;;;;6285307;28;20572;-80
2022/10/26 17:54:35;;;;;;;14.95;6.35;;;;;;;;;;6267981;28;20054;-81
2022/10/26 17:57:36;;;;;;;13.85;6.20;;;;;;;;;;6299009;28;20062;-80
2022/10/26 18:00:39;;;;;;;14.90;7.22;;;;;;;;;;6303623;28;20050;-80
2022/10/26 18:03:41;;;;;;;17.10;7.55;;;;;;;;;;6283045;28;20059;-81
2022/10/26 18:06:42;;;;;;;9.57;5.13;;;;;;;;;;6299667;28;20072;-81
2022/10/26 18:09:44;;;;;;;9.55;4.32;;;;;;;;;;6300905;28;20051;-82
2022/10/26 18:12:46;;;;;;;13.43;5.32;;;;;;;;;;6304624;28;20059;-83
2022/10/26 18:15:47;;;;;;;12.90;7.18;;;;;;;;;;6297222;28;20068;-82
2022/10/26 18:18:58;;;;;;;12.23;7.50;;;;;;;;;;6301841;28;20122;-81
2022/10/26 18:22:00;;;;;;;14.02;7.60;;;;;;;;;;6301984;28;20533;-83
2022/10/26 18:25:02;;;;;;;14.90;8.15;;;;;;;;;;6302262;28;20074;-82
2022/10/26 18:28:04;;;;;;;20.10;9.00;;;;;;;;;;6295899;28;20054;-82
2022/10/26 18:31:07;;;;;;;15.70;6.72;;;;;;;;;;6300775;28;20440;-83
2022/10/26 18:34:09;;;;;;;13.32;6.32;;;;;;;;;;6276852;28;20067;-82